Terminal Aerodrome Forecast
Issued by NWS Spokane, WA

Home | Current Version | Previous Version | Text Only | Print | Product List | Glossary On
Versions: 1 2 3 4 5 6 7 8 9 10 11 12 13 14 15 16 17 18 19 20 21 22 23 24 25 26 27 28 29 30 31 32 33 34 35 36 37 38 39 40 41 42 43 44 45 46 47 48 49 50
470
FTUS46 KOTX 101740
TAFGEG
TAF
KGEG 101740Z 1018/1118 06004KT P6SM FEW020 SCT100 BKN200
     FM110400 26004KT P6SM BKN070 OVC100
     FM110600 23005KT 4SM -SN OVC035
     FM110800 18003KT 1SM -SN BR OVC005
     FM111200 22004KT 3/4SM -FZDZSN BR OVC003
     FM111400 21004KT 1/2SM FG OVC002=

USA.gov is the U.S. government's official web portal to all federal, state and local government web resources and services.